Terminal Aerodrome Forecast
Issued by NWS

Home | Current Version | Previous Version | Graphics & Text | Print | Product List | Glossary On
Versions: 1 2 3 4 5 6 7 8 9 10 11 12 13
979
FTUS43 KBIS 201120
TAFJMS
TAF
KJMS 201120Z 2012/2112 VRB03KT P6SM SKC
     FM201500 19005KT P6SM SKC
     FM201700 15005KT P6SM SKC
     FM202100 13007KT P6SM SKC
     FM210700 VRB04KT P6SM SKC=

USA.gov is the U.S. government's official web portal to all federal, state and local government web resources and services.